Date,TemperatureHighF,TemperatureAvgF,TemperatureLowF,DewpointHighF,DewpointAvgF,DewpointLowF,HumidityHigh,HumidityAvg,HumidityLow,PressureMaxIn,PressureMinIn,WindSpeedMaxMPH,WindSpeedAvgMPH,GustSpeedMaxMPH,PrecipitationSumIn
2013-1-1,67,52,44,66,49,37,100,88,72,30.13,29.84,7,3,18,0.07
2013-1-2,45,41,37,37,33,32,83,75,66,30.23,30.12,6,3,19,0.00
2013-1-3,50,44,38,36,33,31,76,65,49,30.34,30.21,6,2,15,0.00
2013-1-4,48,45,42,40,36,34,84,71,66,30.42,30.28,4,2,12,0.02
2013-1-5,49,44,39,45,42,38,97,90,84,30.29,30.16,3,1,8,0.20
2013-1-6,62,44,33,48,38,32,100,83,48,30.29,30.17,6,1,16,0.01
2013-1-7,64,47,32,47,40,30,100,79,52,30.22,29.97,6,2,11,0.00
2013-1-8,66,58,50,65,56,44,100,95,76,29.97,29.72,9,2,22,0.18
2013-1-9,68,62,58,66,61,55,100,97,85,29.93,29.75,7,2,16,1.12
2013-1-10,72,59,50,58,49,44,99,74,38,29.99,29.89,7,3,14,0.01
2013-1-11,72,60,42,67,57,41,100,90,72,29.95,29.75,10,3,18,0.01
2013-1-12,75,71,51,72,68,4,100,92,82,29.76,29.56,23,7,27,0.01
2013-1-13,53,46,40,46,37,32,92,73,52,30.06,29.71,9,5,23,0.04
2013-1-14,53,43,35,37,34,30,88,72,55,30.14,30.00,7,3,22,0.00
2013-1-15,44,38,36,38,35,33,96,90,75,30.11,29.98,7,3,18,0.05
2013-1-16,55,40,0,33,25,17,85,60,24,30.25,30.09,8,3,24,0.00
2013-1-17,69,48,28,37,31,23,84,55,30,30.39,30.19,6,2,15,0.00
2013-1-18,68,50,32,43,36,-33,93,63,31,30.44,30.25,10,2,13,0.00
2013-1-19,74,54,37,50,44,35,97,72,37,30.26,30.07,10,2,16,0.00
2013-1-20,76,57,39,55,48,39,100,77,39,30.18,30.00,6,1,14,0.00
2013-1-21,79,57,42,59,50,31,100,80,28,30.17,30.05,4,1,10,0.00
2013-1-22,76,59,42,55,49,41,100,73,43,30.22,30.10,6,2,15,0.00
2013-1-23,76,61,45,61,55,44,100,82,53,30.26,30.12,7,2,14,0.01
2013-1-24,83,69,61,65,63,60,100,81,50,30.19,30.03,11,6,22,0.00
2013-1-25,83,70,61,65,63,59,96,79,50,30.08,29.95,13,6,21,0.00
2013-1-26,81,69,60,65,61,58,95,78,48,30.09,29.97,9,3,17,0.00
2013-1-27,79,68,59,69,64,13,100,86,10,30.04,29.92,12,5,24,0.01
2013-1-28,82,73,70,68,67,65,90,81,60,30.00,29.84,12,8,25,0.01
2013-1-29,82,72,62,70,65,38,94,79,39,29.84,29.48,20,10,34,0.38
2013-1-30,64,54,36,39,25,16,70,35,17,30.17,29.70,13,5,27,0.05
2013-1-31,72,52,32,38,26,10,85,43,10,30.24,30.10,11,3,17,0.00
2013-2-1,74,59,42,47,41,36,89,56,26,30.27,30.13,8,2,18,0.00
2013-2-2,82,60,42,56,48,40,96,68,31,30.19,30.06,7,1,14,0.00
2013-2-3,76,61,46,49,42,32,88,55,23,30.25,29.95,6,2,14,0.00
2013-2-4,79,65,55,64,58,47,100,81,58,29.96,29.70,9,2,17,0.00
2013-2-5,86,70,64,66,63,60,100,82,46,29.89,29.77,7,2,14,0.00
2013-2-6,70,64,60,67,62,57,100,92,79,29.95,29.77,5,2,14,0.52
2013-2-7,75,63,59,64,60,56,100,89,67,29.94,29.79,5,1,11,0.00
2013-2-8,76,64,54,56,47,43,84,59,32,30.12,29.94,6,2,14,0.00
2013-2-9,68,57,47,63,54,45,96,90,81,30.03,29.78,9,3,20,0.00
2013-2-10,72,65,58,69,54,43,95,69,43,29.92,29.65,13,4,24,0.21
2013-2-11,62,55,51,54,50,44,100,82,57,29.97,29.85,8,3,21,0.12
2013-2-12,69,58,54,60,55,50,100,91,64,29.93,29.73,7,2,13,0.02
2013-2-13,66,52,41,50,40,36,85,65,39,30.06,29.89,6,3,20,0.00
2013-2-14,72,58,32,45,36,28,95,51,20,30.08,29.93,5,2,11,0.00
2013-2-15,72,54,38,48,40,33,95,63,30,30.27,30.00,7,2,18,0.00
2013-2-16,69,51,34,35,28,20,74,46,19,30.37,30.15,6,2,12,0.00
2013-2-17,73,58,44,54,43,35,83,61,27,30.16,29.92,13,6,25,0.00
2013-2-18,82,68,54,68,59,45,88,75,48,30.00,29.73,13,6,26,0.14
2013-2-19,72,58,42,45,36,24,85,48,18,30.16,29.99,7,3,19,0.00
2013-2-20,67,59,53,67,52,35,100,79,48,30.02,29.62,12,5,27,0.08
2013-2-21,82,69,52,70,56,39,100,69,27,29.77,29.54,12,5,28,0.04
2013-2-22,61,53,50,46,43,39,84,71,55,29.92,29.76,6,2,17,0.00
2013-2-23,73,60,44,46,41,34,77,52,33,29.94,29.79,5,2,12,0.00
2013-2-24,74,58,38,58,50,36,92,75,46,29.84,29.55,9,3,17,0.00
2013-2-25,74,61,48,62,39,11,100,55,10,29.74,29.46,15,7,34,1.64
2013-2-26,69,54,41,35,32,25,67,45,20,29.86,29.73,8,4,20,0.00
2013-2-27,68,54,42,48,35,26,92,53,25,30.12,29.80,9,3,24,0.00
2013-2-28,62,49,39,30,27,24,63,45,24,30.23,29.82,8,3,22,0.00
2013-3-1,72,53,33,34,27,19,77,42,15,29.91,29.72,5,1,14,0.00
2013-3-2,62,47,35,33,25,14,72,46,17,30.02,29.87,11,3,25,0.00
2013-3-3,74,54,33,51,35,20,83,52,22,30.19,29.84,11,5,24,0.00
2013-3-4,86,68,55,61,56,51,90,68,35,29.88,29.63,17,9,30,0.01
2013-3-5,68,59,43,62,38,10,89,51,12,30.25,29.69,13,6,30,0.00
2013-3-6,73,53,33,42,23,10,76,35,10,30.35,30.13,6,2,14,0.00
2013-3-7,76,57,38,53,46,35,95,70,43,30.18,30.03,8,3,19,0.00
2013-3-8,71,63,53,62,57,49,92,81,67,30.08,29.93,8,4,20,0.00
2013-3-9,79,69,61,65,63,58,95,82,61,29.95,29.60,15,7,30,0.00
2013-3-10,71,63,52,68,51,38,100,68,32,29.99,29.61,10,4,25,0.41
2013-3-11,68,54,40,38,26,7,78,41,12,30.08,29.91,9,3,21,0.00
2013-3-12,82,58,34,44,31,20,83,43,12,30.15,29.99,12,2,14,0.19
2013-3-13,79,64,41,49,40,33,93,47,20,30.34,30.15,5,2,13,0.00
2013-3-14,79,66,46,54,49,40,91,56,32,30.32,30.15,9,4,18,0.00
2013-3-15,81,64,51,60,53,47,100,71,35,30.18,29.94,11,5,23,0.00
2013-3-16,84,69,57,63,59,53,97,75,38,29.93,29.70,14,8,28,0.01
2013-3-17,86,72,64,67,64,62,95,78,50,29.75,29.57,11,6,22,0.00
2013-3-18,99,78,67,67,61,50,95,61,22,29.82,29.61,10,4,22,0.00
2013-3-19,85,69,50,66,58,46,88,67,49,29.89,29.74,9,3,21,0.00
2013-3-20,78,63,50,63,50,36,96,68,27,30.12,29.85,9,2,22,0.09
2013-3-21,76,63,49,63,54,41,92,74,51,29.95,29.57,13,5,27,0.00
2013-3-22,87,74,68,70,67,63,94,81,53,29.65,29.55,10,5,19,0.00
2013-3-23,82,64,55,69,59,54,97,84,57,29.66,29.50,4,1,11,0.02
2013-3-24,63,55,42,60,37,25,100,56,26,30.07,29.56,12,5,30,0.01
2013-3-25,66,48,34,31,22,8,78,43,11,30.29,30.06,6,1,14,0.00
2013-3-26,70,51,29,31,21,9,71,36,10,30.41,30.21,5,1,14,0.00
2013-3-27,75,56,32,51,39,26,90,57,27,30.26,30.08,9,4,22,0.00
2013-3-28,76,65,56,60,56,50,85,72,55,30.14,30.05,9,4,17,0.00
2013-3-29,78,67,55,62,58,54,100,74,53,30.11,29.98,9,4,18,0.00
2013-3-30,86,72,63,66,63,59,96,75,42,30.03,29.83,9,4,20,0.00
2013-3-31,90,74,66,69,65,62,93,77,40,29.87,29.74,10,4,18,0.04
2013-4-1,86,74,65,68,66,62,100,77,50,29.95,29.82,7,2,17,0.00
2013-4-2,78,67,62,69,65,60,100,92,74,29.91,29.65,10,3,28,2.22
2013-4-3,63,57,51,62,56,49,100,95,85,30.02,29.65,10,3,28,0.58
2013-4-4,58,52,46,50,46,41,94,80,63,30.11,29.98,8,3,19,0.01
2013-4-5,75,58,39,53,46,38,97,69,38,30.19,29.98,4,1,10,0.00
2013-4-6,78,64,51,61,57,50,100,78,54,30.00,29.81,11,4,23,0.00
2013-4-7,82,70,60,65,62,59,100,77,52,29.87,29.72,10,4,23,0.00
2013-4-8,82,72,66,69,66,63,97,82,56,29.76,29.62,15,6,24,0.00
2013-4-9,86,76,68,72,68,66,95,80,55,29.66,29.54,12,7,30,0.00
2013-4-10,76,62,47,72,58,42,95,87,75,29.81,29.57,10,5,24,0.15
2013-4-11,76,58,45,44,40,35,88,55,26,29.86,29.69,8,2,19,0.01
2013-4-12,83,63,42,55,45,38,95,61,22,29.92,29.76,5,2,12,0.00
2013-4-13,81,65,47,59,54,46,97,71,38,29.88,29.69,8,2,20,0.00
2013-4-14,90,70,55,70,63,54,100,82,45,29.73,29.52,7,3,19,0.00
2013-4-15,86,76,70,71,69,68,93,80,58,29.73,29.62,10,5,20,0.00
2013-4-16,88,77,68,74,70,67,100,82,56,29.83,29.72,9,4,21,0.00
2013-4-17,83,76,73,79,72,71,100,88,69,29.82,29.61,10,6,24,0.05
2013-4-18,75,63,53,74,59,42,100,87,63,29.96,29.57,8,4,25,0.27
2013-4-19,71,56,41,42,34,21,82,50,15,30.19,29.95,7,2,23,0.00
2013-4-20,75,57,36,48,38,28,90,56,22,30.16,29.94,7,2,16,0.00
2013-4-21,79,63,46,60,53,43,95,72,50,30.06,29.93,7,2,16,0.00
2013-4-22,86,69,49,63,58,48,100,73,44,30.03,29.80,7,3,18,0.00
2013-4-23,86,72,56,68,64,48,95,78,54,29.95,29.76,6,4,20,0.00
2013-4-24,73,58,46,49,44,40,85,62,37,30.12,29.94,6,3,21,0.00
2013-4-25,71,65,57,58,48,43,75,55,38,30.22,30.07,6,3,14,0.00
2013-4-26,86,73,64,70,67,58,100,81,59,30.10,29.95,9,4,22,0.01
2013-4-27,83,73,70,74,70,68,100,92,71,30.00,29.85,4,1,13,0.48
2013-4-28,83,81,76,67,66,63,63,60,55,29.91,29.79,5,3,11,0.14
2013-4-29,82,71,65,70,67,63,100,87,60,29.84,29.73,8,2,22,0.20
2013-4-30,86,74,65,70,67,62,100,80,52,29.77,29.63,5,1,12,0.00
2013-5-1,90,76,67,71,67,63,100,78,44,29.82,29.69,6,1,13,0.00
2013-5-2,76,63,48,70,56,39,100,78,60,30.18,29.81,10,4,29,0.01
2013-5-3,71,56,44,41,32,20,87,46,16,30.19,29.98,10,4,30,0.02
2013-5-4,83,64,44,50,40,34,89,47,18,30.01,29.78,8,3,19,0.00
2013-5-5,79,63,49,50,46,40,83,55,28,30.03,29.87,6,1,16,0.00
2013-5-6,80,63,46,56,50,44,95,68,35,30.04,29.88,3,0,8,0.00
2013-5-7,87,69,50,62,55,49,97,66,32,29.99,29.85,5,1,17,0.00
2013-5-8,86,77,60,66,62,55,97,63,36,29.95,29.83,8,4,17,0.00
2013-5-9,82,75,69,73,71,66,96,88,74,29.88,29.73,10,3,24,0.00
2013-5-10,85,74,64,74,69,64,100,87,58,29.95,29.72,8,2,24,0.71
2013-5-11,89,74,63,70,63,53,100,72,39,30.02,29.87,4,1,14,0.00
2013-5-12,88,71,57,60,55,50,87,60,29,30.12,29.99,5,1,15,0.00
2013-5-13,86,72,53,64,57,51,96,64,33,30.19,30.06,4,1,11,0.00
2013-5-14,86,73,61,69,65,60,100,79,51,30.14,29.96,8,3,18,0.00
2013-5-15,83,74,69,74,70,67,100,88,69,30.03,29.78,9,5,22,0.04
2013-5-16,88,78,71,75,71,69,93,81,61,29.84,29.68,11,5,23,0.00
2013-5-17,91,80,72,76,72,69,96,79,60,29.83,29.73,9,4,21,0.00
2013-5-18,93,81,73,76,72,68,97,75,46,29.85,29.76,9,5,21,0.00
2013-5-19,90,81,73,74,71,65,93,75,45,29.79,29.67,10,6,24,0.00
2013-5-20,90,81,75,74,73,71,93,77,54,29.79,29.63,10,5,26,0.00
2013-5-21,90,81,74,75,74,68,94,80,58,29.75,29.61,10,4,21,0.00
2013-5-22,98,78,66,77,72,66,100,83,47,29.83,29.71,4,1,11,0.02
2013-5-23,92,81,74,76,74,71,100,80,53,29.96,29.79,7,3,15,0.00
2013-5-24,90,80,75,76,74,71,100,82,58,30.03,29.91,8,3,18,0.00
2013-5-25,82,76,74,79,75,73,100,94,84,30.07,29.94,6,2,13,0.25
2013-5-26,90,80,71,76,72,68,100,78,50,30.01,29.89,7,3,18,0.01
2013-5-27,91,80,70,75,71,68,100,77,48,29.94,29.78,9,4,22,0.00
2013-5-28,91,81,72,74,72,68,96,76,48,29.85,29.72,11,5,23,0.00
2013-5-29,87,80,74,75,73,72,96,82,62,29.79,29.67,10,5,30,0.00
2013-5-30,92,82,75,79,75,72,97,81,53,29.77,29.67,9,4,18,0.05
2013-5-31,95,84,77,77,75,72,97,77,49,29.80,29.69,9,5,23,0.00
2013-6-1,96,85,78,77,75,72,94,74,47,29.81,29.72,9,5,22,0.00
2013-6-2,93,77,68,77,72,64,100,85,43,29.95,29.79,4,1,23,0.99
2013-6-3,98,80,64,72,67,61,100,68,32,29.88,29.73,4,1,10,0.00
2013-6-4,93,80,66,74,70,66,100,73,43,29.83,29.71,5,2,14,0.00
2013-6-5,95,82,70,77,72,66,100,74,41,29.80,29.64,5,2,15,0.00
2013-6-6,98,85,72,78,71,64,100,68,34,29.81,29.63,4,1,14,0.00
2013-6-7,94,80,67,70,63,49,97,61,23,29.87,29.75,4,1,14,0.00
2013-6-8,95,80,64,75,67,60,92,68,36,29.84,29.71,8,2,21,0.00
2013-6-9,90,79,72,78,74,69,100,85,56,29.87,29.75,6,1,15,0.11
2013-6-10,97,83,68,79,71,62,100,72,33,29.90,29.81,7,1,17,0.00
2013-6-11,91,79,72,78,75,71,100,87,57,29.96,29.87,9,1,21,0.33
2013-6-12,93,84,76,79,77,73,100,81,54,29.97,29.87,11,2,27,0.28
2013-6-13,96,86,74,78,76,72,99,71,51,29.98,29.83,5,2,11,0.00
2013-6-14,97,87,77,81,74,69,100,67,43,29.90,29.78,4,1,9,0.00
2013-6-15,96,86,75,80,73,67,100,70,39,29.91,29.78,5,2,13,0.00
2013-6-16,99,85,72,78,73,65,100,71,35,29.94,29.81,6,2,17,0.00
2013-6-17,100,86,74,79,73,58,100,71,28,29.91,29.76,8,3,18,0.00
2013-6-18,101,86,75,78,72,61,100,69,29,29.92,29.77,6,2,13,0.00
2013-6-19,100,86,75,79,71,61,100,66,30,29.89,29.80,7,3,17,0.00
2013-6-20,98,85,73,79,71,61,100,68,31,29.98,29.88,8,3,17,0.00
2013-6-21,98,86,72,79,70,58,100,66,28,30.00,29.89,7,3,18,0.00
2013-6-22,98,85,76,79,73,62,100,71,34,29.96,29.82,9,3,24,0.00
2013-6-23,95,84,73,78,72,57,100,72,30,29.91,29.82,8,3,21,0.00
2013-6-24,98,85,73,78,71,60,100,68,30,29.95,29.84,9,4,23,0.00
2013-6-25,98,83,75,79,73,51,100,77,27,29.92,27.52,11,4,24,0.00
2013-6-26,101,87,75,78,71,58,100,66,25,29.91,29.79,8,4,19,0.00
2013-6-27,105,87,74,79,68,48,100,62,15,29.94,29.80,7,2,14,0.00
2013-6-28,109,90,77,78,64,38,100,55,10,29.91,29.69,6,3,17,0.00
2013-6-29,112,93,74,74,59,38,93,44,10,29.77,29.61,6,2,16,0.00
2013-6-30,101,87,74,75,61,36,92,48,11,29.81,29.68,6,1,13,0.00
2013-7-1,98,84,67,58,44,29,67,31,10,29.88,29.76,5,1,17,0.00
2013-7-2,100,84,67,59,45,26,73,34,10,29.94,29.82,4,1,14,0.00
2013-7-3,102,82,64,67,53,30,91,48,10,29.93,29.77,8,2,17,0.00
2013-7-4,102,83,67,72,61,33,100,56,10,29.91,29.77,9,1,21,0.00
2013-7-5,100,85,66,73,60,42,100,52,15,29.89,29.73,6,2,17,0.00
2013-7-6,99,85,68,74,64,48,94,55,19,29.84,29.72,7,2,17,0.00
2013-7-7,98,83,72,80,72,58,100,75,28,29.91,29.79,10,2,28,0.00
2013-7-8,94,81,75,77,73,62,100,80,38,30.05,29.90,6,3,14,0.00
2013-7-9,99,86,75,80,72,61,100,69,29,30.05,29.92,7,2,11,0.00
2013-7-10,99,85,74,81,71,53,100,69,22,30.01,29.84,10,3,17,0.00
2013-7-11,101,90,73,78,64,47,100,49,16,29.92,29.79,8,4,16,0.00
2013-7-12,101,87,74,79,67,49,100,61,19,29.88,29.76,6,2,16,0.00
2013-7-13,107,89,73,75,59,35,100,49,10,29.88,29.72,6,2,13,0.00
2013-7-14,97,82,73,75,69,54,100,70,25,29.84,29.74,10,2,21,0.00
2013-7-15,92,78,73,76,73,65,100,85,44,29.93,29.80,7,2,23,0.02
2013-7-16,93,81,74,76,72,58,100,79,32,30.01,29.91,11,2,25,0.02
2013-7-17,92,80,74,77,73,64,100,83,41,30.07,29.99,9,2,21,0.04
2013-7-18,95,82,71,77,69,57,99,71,28,30.04,29.89,9,2,22,0.00
2013-7-19,99,82,68,77,66,32,100,68,10,29.97,29.82,8,2,25,0.00
2013-7-20,97,80,71,77,70,55,100,77,27,29.90,29.77,8,2,20,0.48
2013-7-21,94,82,73,83,76,68,100,84,44,29.87,29.78,8,2,17,0.04
2013-7-22,97,86,77,83,73,62,100,72,32,29.91,29.82,9,4,24,0.00
2013-7-23,99,86,77,81,70,45,100,69,16,29.93,29.80,9,4,22,0.00
2013-7-24,97,84,75,82,72,56,100,73,25,29.91,29.77,6,3,15,0.00
2013-7-25,102,87,74,79,68,45,100,64,16,29.93,29.85,6,3,17,0.00
2013-7-26,100,86,77,80,71,50,100,68,20,29.94,29.78,9,4,17,0.00
2013-7-27,97,86,79,78,71,58,96,65,29,29.88,29.73,8,2,17,0.00
2013-7-28,99,87,78,81,69,47,100,64,18,29.85,29.76,9,3,19,0.00
2013-7-29,99,86,75,80,66,35,100,62,12,29.96,29.85,11,4,26,0.00
2013-7-30,101,86,74,80,65,33,100,63,10,30.01,29.89,8,4,19,0.00
2013-7-31,107,87,73,80,61,34,100,57,10,30.01,29.82,8,2,18,0.00
2013-8-1,105,89,78,79,63,38,100,53,11,29.94,29.78,6,3,16,0.00
2013-8-2,102,88,75,78,64,41,100,56,13,29.90,29.77,7,3,17,0.00
2013-8-3,102,87,74,79,66,44,100,62,15,29.93,29.83,8,3,17,0.00
2013-8-4,103,88,76,80,68,46,100,60,15,29.98,29.84,8,3,21,0.00
2013-8-5,103,87,75,80,66,38,100,60,12,29.96,29.80,9,4,21,0.00
2013-8-6,103,88,78,80,67,44,100,61,14,29.88,29.74,11,5,21,0.00
2013-8-7,104,88,78,80,65,35,100,59,10,29.85,29.71,9,6,20,0.00
2013-8-8,104,88,76,79,64,34,100,59,10,29.82,29.70,8,4,17,0.00
2013-8-9,104,88,73,80,62,36,100,56,10,29.88,29.74,7,2,18,0.00
2013-8-10,103,87,76,79,68,50,100,60,18,29.93,29.83,9,2,17,0.11
2013-8-11,103,85,75,80,68,47,100,64,17,29.97,29.88,9,1,21,0.02
2013-8-12,102,86,72,82,65,41,100,59,13,29.97,29.83,7,3,23,0.01
2013-8-13,105,89,78,80,63,34,100,56,10,29.94,29.76,7,4,17,0.00
2013-8-14,106,90,79,80,62,36,100,49,10,29.90,29.75,6,3,14,0.00
2013-8-15,105,85,74,77,62,32,97,57,10,29.92,29.78,6,2,14,0.15
2013-8-16,105,84,72,78,65,36,100,65,10,29.91,29.75,7,1,17,0.00
2013-8-17,101,83,69,73,53,25,100,51,10,29.92,29.79,5,1,20,0.00
2013-8-18,102,84,68,71,51,30,97,46,10,29.93,29.84,5,1,13,0.00
2013-8-19,100,84,67,75,52,29,100,47,10,29.95,29.80,5,2,14,0.00
2013-8-20,92,79,66,76,63,55,94,62,30,29.93,29.85,8,2,18,0.02
2013-8-21,100,82,69,75,64,45,100,63,17,29.97,29.87,6,2,24,0.00
2013-8-22,101,85,71,80,64,44,100,59,15,29.97,29.81,9,2,19,0.00
2013-8-23,104,86,71,78,62,35,100,55,10,29.91,29.76,9,2,21,0.00
2013-8-24,102,87,72,77,60,40,100,51,12,29.93,29.81,8,2,18,0.00
2013-8-25,92,83,74,72,67,58,88,61,33,29.97,29.89,7,2,20,0.00
2013-8-26,85,78,74,78,74,67,100,87,56,30.00,29.93,7,3,18,0.37
2013-8-27,94,80,74,78,72,58,100,80,32,30.01,29.93,6,1,14,0.00
2013-8-28,100,84,70,79,63,42,100,59,14,30.00,29.88,4,1,12,0.00
2013-8-29,104,87,74,78,62,35,100,55,10,29.99,29.82,6,2,12,0.00
2013-8-30,102,87,74,78,63,44,100,54,14,29.93,29.76,7,3,18,0.00
2013-8-31,102,87,73,77,63,39,100,54,12,29.85,29.71,7,2,15,0.00
2013-9-1,102,86,72,76,62,34,100,55,10,29.83,29.70,7,3,17,0.00
2013-9-2,105,86,74,80,65,35,100,60,10,29.88,29.73,8,3,19,0.00
2013-9-3,104,87,72,82,61,34,100,55,10,29.90,29.75,7,2,13,0.00
2013-9-4,102,88,76,77,60,35,100,51,10,29.94,29.81,7,2,18,0.00
2013-9-5,100,83,72,78,68,49,100,68,18,29.99,29.89,12,1,21,0.58
2013-9-6,100,84,73,81,69,48,99,68,18,29.99,29.85,7,1,19,0.01
2013-9-7,97,81,73,80,71,54,100,77,25,29.93,29.82,9,2,18,0.31
2013-9-8,94,79,72,79,71,55,100,82,28,29.88,29.77,9,1,22,0.35
2013-9-9,93,78,71,79,72,54,100,85,27,29.88,29.81,7,1,22,0.21
2013-9-10,95,82,72,78,66,42,100,68,17,29.95,29.86,8,2,17,0.01
2013-9-11,93,78,73,76,74,57,100,90,31,29.97,29.88,7,0,13,0.00
2013-9-12,98,83,71,78,62,36,100,61,12,29.95,29.79,5,1,15,0.00
2013-9-13,99,84,68,77,54,31,99,50,10,29.85,29.69,6,2,17,0.00
2013-9-14,98,82,70,77,66,51,100,63,22,29.83,29.72,7,1,19,0.02
2013-9-15,96,83,73,78,68,51,100,67,23,29.89,29.80,6,2,15,0.00
2013-9-16,97,82,74,79,72,55,100,77,26,29.93,29.82,9,2,14,0.22
2013-9-17,86,80,74,80,77,74,99,90,75,29.94,29.90,4,1,11,0.01
2013-9-18,85,82,80,73,64,59,78,56,43,29.84,29.80,3,2,7,0.00
2013-9-19,95,84,75,80,73,58,99,75,29,29.84,29.74,7,3,14,0.12
2013-9-20,86,78,73,82,78,73,100,98,85,29.73,29.63,7,2,13,1.71
2013-9-21,87,76,69,73,65,53,99,72,34,29.77,29.67,3,1,17,0.02
2013-9-22,91,81,62,65,41,23,90,33,10,29.76,29.66,4,2,14,0.00
2013-9-23,90,81,75,71,61,48,84,53,31,29.72,29.64,4,1,10,0.00
2013-9-24,99,90,73,72,54,32,81,37,10,29.78,29.69,5,1,13,0.00
2013-9-25,101,91,65,69,44,29,99,30,10,29.79,29.67,2,1,7,0.00
2013-9-26,94,84,68,72,60,39,99,49,15,29.80,29.71,5,3,13,0.00
2013-9-27,93,82,71,80,72,59,100,76,35,29.83,29.73,9,3,19,0.00
2013-9-28,93,81,78,80,77,65,99,89,40,29.85,29.78,7,3,17,0.69
2013-9-29,87,77,71,77,72,64,100,86,47,29.91,29.80,4,1,11,0.00
2013-9-30,98,80,70,75,59,28,100,64,10,29.83,29.69,4,1,10,0.00
2013-10-1,93,80,71,82,72,62,100,80,38,29.83,29.73,10,2,20,0.00
2013-10-2,95,79,71,80,73,56,100,83,27,29.86,29.75,6,2,14,0.01
2013-10-3,93,81,73,83,70,47,100,74,22,29.85,29.73,6,2,14,0.08
2013-10-4,94,81,71,78,68,54,100,71,27,29.83,29.73,6,2,14,0.00
2013-10-5,99,81,65,80,60,35,99,61,11,29.89,29.74,7,1,19,0.01
2013-10-6,84,67,55,57,33,9,100,38,10,30.01,29.88,5,2,21,0.38
2013-10-7,90,68,51,53,31,16,84,34,10,30.05,29.93,2,0,11,0.00
2013-10-8,91,68,48,55,36,13,100,47,10,30.00,29.88,2,0,8,0.00
2013-10-9,87,70,51,62,44,23,100,52,10,29.97,29.85,5,1,20,0.00
2013-10-10,90,77,60,65,53,30,99,53,13,29.95,29.80,6,2,14,0.00
2013-10-11,90,78,69,76,68,49,100,74,26,29.84,29.74,7,3,18,0.00
2013-10-12,92,80,74,82,75,60,100,87,36,29.93,29.80,9,2,20,0.59
2013-10-13,78,74,70,78,74,69,100,99,93,30.06,29.92,4,2,14,1.57
2013-10-14,87,78,72,77,68,51,100,77,30,29.99,29.83,7,2,17,0.00
2013-10-15,89,78,70,78,66,47,100,73,24,29.88,29.76,6,2,14,0.00
2013-10-16,73,63,60,73,62,60,100,99,95,29.94,29.81,4,1,14,0.41
2013-10-17,83,67,56,60,44,17,100,59,10,30.00,29.86,3,1,12,0.00
2013-10-18,74,64,55,65,58,49,100,82,44,29.90,29.77,6,1,13,0.50
2013-10-19,73,61,47,63,41,8,100,63,10,30.06,29.86,6,2,18,0.12
2013-10-20,80,61,43,57,36,13,100,56,10,29.99,29.82,6,1,14,0.00
2013-10-21,86,70,56,69,59,40,100,74,21,29.91,29.78,4,1,11,0.35
2013-10-22,81,63,0,66,41,9,100,52,10,30.02,29.90,4,1,14,0.04
2013-10-23,88,68,0,54,33,13,94,37,10,30.07,29.97,3,1,9,0.04
2013-10-24,89,69,51,56,34,14,89,38,10,30.13,30.01,3,0,7,0.00
2013-10-25,82,67,53,62,45,22,100,55,12,30.22,30.11,6,2,13,0.00
2013-10-26,86,70,56,60,47,21,94,54,10,30.13,29.98,7,2,18,0.00
2013-10-27,80,68,61,68,62,51,100,84,37,30.02,29.90,7,1,20,1.33
2013-10-28,88,73,64,70,60,39,100,71,20,29.99,29.89,7,2,17,0.00
2013-10-29,88,76,68,71,61,40,100,67,20,29.99,29.89,9,4,19,0.00
2013-10-30,88,78,72,80,73,61,100,87,42,29.94,29.71,10,5,26,0.94
2013-10-31,86,72,55,78,55,13,100,68,10,29.79,29.67,13,3,27,1.59
2013-11-1,86,68,50,63,37,7,100,48,10,29.91,29.71,6,2,14,0.00
2013-11-2,78,65,48,38,20,3,65,22,10,30.15,29.91,6,2,19,0.00
2013-11-3,75,58,41,45,29,6,92,45,10,30.11,29.94,6,2,14,0.00
2013-11-4,73,65,54,68,56,44,100,74,38,29.97,29.85,5,2,11,0.01
2013-11-5,77,71,66,73,70,65,100,96,70,29.93,29.83,6,2,16,0.15
2013-11-6,78,66,53,73,57,31,99,74,33,30.18,29.87,5,1,21,0.01
2013-11-7,74,57,48,34,18,1,50,25,10,30.32,30.17,5,1,14,0.00
2013-11-8,69,56,44,42,21,2,78,33,10,30.27,30.07,5,1,14,0.00
2013-11-9,76,62,52,56,36,13,79,43,10,30.10,30.01,4,1,9,0.00
2013-11-10,81,64,52,59,37,10,100,49,10,30.20,30.07,4,1,11,0.00
2013-11-11,83,64,51,52,35,13,94,47,10,30.16,30.04,3,0,9,0.00
2013-11-12,73,56,46,51,35,8,96,52,10,30.48,30.11,6,1,20,0.00
2013-11-13,64,46,34,22,8,-10,61,26,10,30.54,30.31,3,1,14,0.00
2013-11-14,67,50,33,48,25,-1,80,46,10,30.30,29.95,4,1,11,0.00
2013-11-15,81,67,54,62,43,18,92,55,10,29.96,29.77,6,2,13,0.00
2013-11-16,84,72,61,74,64,52,100,79,34,29.83,29.66,9,4,22,0.00
2013-11-17,92,79,71,73,61,32,100,63,13,29.83,29.69,9,4,17,0.00
2013-11-18,84,73,63,77,55,8,99,64,10,30.00,29.82,6,1,13,0.07
2013-11-19,75,64,53,46,18,3,76,22,10,30.03,29.90,7,2,16,0.00
2013-11-20,75,65,52,68,46,21,99,58,15,29.92,29.80,6,2,14,0.30
2013-11-21,84,76,69,79,71,62,100,88,50,29.95,29.83,7,4,17,0.21
2013-11-22,75,50,39,75,46,32,100,87,71,30.23,29.94,7,4,27,0.00
2013-11-23,47,43,39,42,38,29,100,84,51,30.31,30.19,7,3,21,0.00
2013-11-24,47,42,38,34,22,-7,85,51,10,30.35,30.21,4,2,15,0.00
2013-11-25,42,40,38,41,39,31,100,96,74,30.21,29.94,4,1,15,0.00
2013-11-26,47,41,38,39,30,18,100,68,37,30.23,29.95,10,4,23,0.00
2013-11-27,58,43,31,21,6,-12,66,27,10,30.38,30.22,5,2,18,0.00
2013-11-28,62,43,28,38,17,-6,87,48,10,30.38,30.26,3,1,8,0.00
2013-11-29,67,53,34,43,23,3,97,41,10,30.40,30.26,4,1,9,0.00
2013-11-30,71,52,37,51,38,11,100,64,10,30.30,30.11,4,1,9,0.00
2013-12-1,75,60,53,61,55,38,100,86,27,30.11,29.86,5,1,11,0.00
2013-12-2,83,68,60,62,47,15,100,63,10,29.86,29.58,6,3,13,0.00
2013-12-3,84,67,57,66,53,19,100,75,10,29.64,29.50,7,3,14,0.00
2013-12-4,80,70,65,72,65,52,100,87,40,29.70,29.58,9,5,20,0.00
2013-12-5,73,62,36,73,56,19,100,83,47,29.95,29.68,7,4,21,0.00
2013-12-6,39,36,33,32,25,18,88,66,49,30.24,29.93,5,4,11,0.00
2013-12-7,32,30,30,28,24,13,90,78,44,30.32,30.18,4,1,9,0.00
2013-12-8,44,39,30,42,33,27,100,82,55,30.21,29.95,3,1,8,0.00
2013-12-9,44,41,36,44,40,28,100,95,72,30.24,29.97,6,2,21,0.00
2013-12-10,51,39,29,28,4,-14,71,31,10,30.39,30.19,8,2,21,0.00
2013-12-11,49,37,29,27,23,-5,81,58,10,30.43,30.24,0,0,4,0.00
2013-12-12,58,46,35,32,12,-6,75,33,10,30.47,30.25,4,1,9,0.00
2013-12-13,56,49,41,52,37,22,100,65,39,30.28,29.75,7,1,11,0.00
2013-12-14,60,49,40,54,36,20,100,65,23,30.21,29.78,15,4,27,0.00
2013-12-15,67,45,29,30,12,-8,79,33,10,30.31,30.17,6,1,14,0.00
2013-12-16,72,50,32,32,12,-5,83,30,10,30.25,30.10,6,2,11,0.00
2013-12-17,79,54,34,44,20,-3,100,37,10,30.25,30.11,5,1,9,0.00
2013-12-18,74,56,35,47,29,6,93,48,10,30.21,29.98,8,2,14,0.00
2013-12-19,79,67,54,69,50,23,100,60,13,29.98,29.73,15,5,30,0.00
2013-12-20,76,73,69,69,64,57,97,77,53,29.77,29.57,12,7,27,0.00
2013-12-21,74,65,52,72,59,28,100,85,21,29.75,29.44,14,5,30,0.00
2013-12-22,60,52,38,59,30,-6,99,54,10,30.26,29.70,8,2,21,0.00
2013-12-23,59,42,31,22,8,-10,66,30,10,30.44,30.24,5,2,14,0.00
2013-12-24,63,44,27,36,13,-8,91,41,10,30.44,30.20,4,1,11,0.00
2013-12-25,59,50,38,51,36,21,100,63,24,30.27,30.16,6,1,12,0.00
2013-12-26,60,51,43,51,34,3,100,61,11,30.32,30.20,4,1,11,0.00
2013-12-27,64,52,44,36,23,0,72,41,10,30.32,30.21,4,1,9,0.00
2013-12-28,67,51,39,37,13,-8,79,32,10,30.21,29.93,2,0,6,0.00
2013-12-29,72,53,37,28,14,-5,63,26,10,30.13,29.89,6,2,20,0.00
2013-12-30,42,38,35,20,3,-12,50,25,10,30.31,30.11,7,3,19,0.00
2013-12-31,49,42,0,19,2,-11,37,20,10,30.37,30.17,3,1,9,0.00
2014-1-1,65,54,44,42,26,5,55,37,10,30.18,29.92,5,1,11,0.00
2014-1-2,58,44,32,37,-4,-17,45,14,10,30.37,29.98,11,4,28,0.00